createdAt,value
2018-06-16T00:00:59.641Z,65.93
2018-06-16T00:03:29.129Z,66.68
2018-06-16T00:05:58.474Z,66.42
2018-06-16T00:08:27.888Z,66.59
2018-06-16T00:10:57.369Z,66.31
2018-06-16T00:13:26.789Z,66.71
2018-06-16T00:15:56.231Z,66.53
2018-06-16T00:18:25.577Z,67.13
2018-06-16T00:20:55.273Z,67.16
2018-06-16T00:23:24.689Z,67.53
2018-06-16T00:25:54.052Z,67.59
2018-06-16T00:28:23.482Z,67.06
2018-06-16T00:30:52.910Z,67.44
2018-06-16T00:33:22.217Z,67.92
2018-06-16T00:35:51.541Z,67.79
2018-06-16T00:38:21.162Z,67.76
2018-06-16T00:40:50.784Z,67.74
2018-06-16T00:43:20.490Z,66.34
2018-06-16T00:45:49.812Z,66.56
2018-06-16T00:48:19.130Z,67.13
2018-06-16T00:50:48.496Z,67.87
2018-06-16T00:53:17.836Z,67.27
2018-06-16T00:55:47.182Z,67.00
2018-06-16T00:58:16.489Z,66.88
2018-06-16T01:00:45.797Z,67.48
2018-06-16T01:03:15.154Z,66.91
2018-06-16T01:05:44.561Z,67.26
2018-06-16T01:08:13.920Z,67.23
2018-06-16T01:10:43.347Z,65.72
2018-06-16T01:13:12.724Z,66.01
2018-06-16T01:15:42.054Z,66.52
2018-06-16T01:18:11.432Z,66.59
2018-06-16T01:20:40.833Z,66.20
2018-06-16T01:23:10.146Z,66.14
2018-06-16T01:25:39.499Z,65.73
2018-06-16T01:28:08.837Z,65.57
2018-06-16T01:30:38.165Z,65.69
2018-06-16T01:33:07.544Z,65.61
2018-06-16T01:35:36.852Z,64.97
2018-06-16T01:38:06.536Z,65.58
2018-06-16T01:40:35.870Z,65.80
2018-06-16T01:43:05.200Z,65.73
2018-06-16T01:45:34.557Z,65.22
2018-06-16T01:48:03.855Z,65.97
2018-06-16T01:50:33.167Z,65.58
2018-06-16T01:53:02.541Z,65.51
2018-06-16T01:55:31.867Z,65.03
2018-06-16T01:58:01.250Z,65.25
2018-06-16T02:00:30.598Z,64.51
2018-06-16T02:03:00.230Z,64.30
2018-06-16T02:05:29.593Z,64.33
2018-06-16T02:07:59.075Z,63.87
2018-06-16T02:10:28.561Z,64.04
2018-06-16T02:12:57.880Z,64.44
2018-06-16T02:15:27.197Z,63.93
2018-06-16T02:17:56.706Z,64.14
2018-06-16T02:20:26.303Z,65.07
2018-06-16T02:22:55.676Z,64.99
2018-06-16T02:25:25.107Z,65.43
2018-06-16T02:27:54.906Z,64.82
2018-06-16T02:30:24.358Z,65.30
2018-06-16T02:32:53.813Z,65.06
2018-06-16T02:35:23.528Z,65.21
2018-06-16T02:37:53.362Z,65.09
2018-06-16T02:40:22.798Z,65.41
2018-06-16T02:42:52.110Z,65.76
2018-06-16T02:45:21.458Z,65.25
2018-06-16T02:47:50.797Z,64.84
2018-06-16T02:50:20.300Z,64.92
2018-06-16T02:52:49.557Z,65.13
2018-06-16T02:55:18.875Z,64.79
2018-06-16T02:57:48.201Z,64.79
2018-06-16T03:00:17.502Z,64.94
2018-06-16T03:02:46.875Z,64.98
2018-06-16T03:05:16.210Z,64.98
2018-06-16T03:07:45.577Z,65.53
2018-06-16T03:10:14.896Z,66.28
2018-06-16T03:12:44.264Z,66.28
2018-06-16T03:15:13.929Z,66.46
2018-06-16T03:17:43.310Z,66.41
2018-06-16T03:20:12.686Z,66.24
2018-06-16T03:22:42.030Z,66.79
2018-06-16T03:25:11.416Z,66.48
2018-06-16T03:27:40.725Z,67.10
2018-06-16T03:30:10.070Z,66.51
2018-06-16T03:32:39.526Z,66.37
2018-06-16T03:35:10.888Z,67.08
2018-06-16T03:37:40.234Z,67.50
2018-06-16T03:40:09.590Z,67.47
2018-06-16T03:42:38.906Z,66.28
2018-06-16T03:45:08.508Z,67.40
2018-06-16T03:47:37.850Z,66.79
2018-06-16T03:50:07.209Z,66.55
2018-06-16T03:52:36.544Z,66.51
2018-06-16T03:55:05.980Z,65.95
2018-06-16T03:57:35.323Z,65.21
2018-06-16T04:00:04.777Z,65.19
2018-06-16T04:02:34.165Z,65.51
2018-06-16T04:05:03.552Z,65.28
2018-06-16T04:07:32.870Z,65.53
2018-06-16T04:10:02.170Z,65.10
2018-06-16T04:12:31.531Z,65.06
2018-06-16T04:15:00.875Z,65.23
2018-06-16T04:17:30.191Z,65.78
2018-06-16T04:19:59.526Z,65.83
2018-06-16T04:22:28.901Z,65.33
2018-06-16T04:24:58.209Z,65.80
2018-06-16T04:27:27.690Z,65.00
2018-06-16T04:29:57.195Z,65.27
2018-06-16T04:32:26.706Z,64.86
2018-06-16T04:34:56.174Z,65.20
2018-06-16T04:37:25.707Z,65.21
2018-06-16T04:39:55.114Z,64.36
2018-06-16T04:42:24.536Z,64.87
2018-06-16T04:44:54.065Z,65.04
2018-06-16T04:47:23.497Z,65.30
2018-06-16T04:49:52.867Z,64.76
2018-06-16T04:52:22.213Z,64.41
2018-06-16T04:54:51.933Z,63.99
2018-06-16T04:57:21.266Z,64.09
2018-06-16T04:59:50.635Z,63.86
2018-06-16T05:02:19.938Z,63.77
2018-06-16T05:04:49.312Z,64.03
2018-06-16T05:07:18.636Z,64.68
2018-06-16T05:09:47.939Z,63.80
2018-06-16T05:12:17.303Z,63.31
2018-06-16T05:14:46.638Z,63.17
2018-06-16T05:17:16.217Z,62.41
2018-06-16T05:19:45.541Z,62.21
2018-06-16T05:22:14.851Z,63.68
2018-06-16T05:24:44.160Z,62.85
2018-06-16T05:27:13.482Z,61.32
2018-06-16T05:29:42.874Z,62.37
2018-06-16T05:32:12.320Z,62.52
2018-06-16T05:34:41.620Z,62.47
2018-06-16T05:37:11.234Z,62.50
2018-06-16T05:39:40.581Z,61.92
2018-06-16T05:42:09.950Z,62.81
2018-06-16T05:44:39.326Z,63.21
2018-06-16T05:47:08.679Z,63.70
2018-06-16T05:49:38.041Z,62.04
2018-06-16T05:52:07.352Z,61.70
2018-06-16T05:54:36.747Z,61.71
2018-06-16T05:57:06.162Z,63.19
2018-06-16T05:59:35.572Z,61.99
2018-06-16T06:02:06.100Z,61.31
2018-06-16T06:04:35.458Z,61.52
2018-06-16T06:07:04.858Z,61.79
2018-06-16T06:09:34.205Z,61.76
2018-06-16T06:12:03.293Z,61.08
2018-06-16T06:14:32.784Z,60.70
2018-06-16T06:17:02.141Z,62.00
2018-06-16T06:19:31.518Z,60.48
2018-06-16T06:22:00.888Z,60.44
2018-06-16T06:24:30.221Z,60.10
2018-06-16T06:26:59.558Z,59.69
2018-06-16T06:29:28.924Z,60.50
2018-06-16T06:31:58.330Z,60.89
2018-06-16T06:34:27.662Z,58.73
2018-06-16T06:36:57.125Z,59.27
2018-06-16T06:39:26.513Z,58.08
2018-06-16T06:41:56.038Z,57.27
2018-06-16T06:44:25.380Z,56.07
2018-06-16T06:46:54.837Z,56.59
2018-06-16T06:49:24.338Z,56.83
2018-06-16T06:51:53.781Z,56.97
2018-06-16T06:54:23.185Z,55.59
2018-06-16T06:56:52.557Z,55.60
2018-06-16T06:59:21.942Z,57.84
2018-06-16T07:01:51.332Z,56.85
2018-06-16T07:04:20.671Z,57.61
2018-06-16T07:06:49.998Z,55.28
2018-06-16T07:09:19.346Z,54.06
2018-06-16T07:11:48.697Z,54.58
2018-06-16T07:14:18.017Z,53.65
2018-06-16T07:16:47.323Z,52.47
2018-06-16T07:19:16.640Z,52.18
2018-06-16T07:21:46.000Z,52.99
2018-06-16T07:24:15.394Z,54.64
2018-06-16T07:26:44.766Z,56.25
2018-06-16T07:29:14.098Z,56.69
2018-06-16T07:31:43.682Z,56.90
2018-06-16T07:34:13.015Z,55.12
2018-06-16T07:36:42.606Z,54.91
2018-06-16T07:39:12.117Z,53.83
2018-06-16T07:41:53.646Z,54.63
2018-06-16T07:44:25.413Z,57.00
2018-06-16T07:46:59.977Z,55.49
2018-06-16T07:49:29.535Z,55.16
2018-06-16T07:51:59.043Z,53.65
2018-06-16T07:54:28.502Z,53.37
2018-06-16T07:56:57.937Z,53.78
2018-06-16T07:59:27.463Z,52.14
2018-06-16T08:01:56.953Z,52.32
2018-06-16T08:04:26.423Z,50.17
2018-06-16T08:06:56.288Z,50.15
2018-06-16T08:09:25.786Z,48.79
2018-06-16T08:11:55.326Z,48.63
2018-06-16T08:14:24.833Z,48.03
2018-06-16T08:16:54.322Z,49.34
2018-06-16T08:19:23.729Z,50.41
2018-06-16T08:21:53.282Z,49.55
2018-06-16T08:24:22.666Z,49.31
2018-06-16T08:26:52.014Z,49.95
2018-06-16T08:29:21.398Z,49.31
2018-06-16T08:31:50.781Z,49.84
2018-06-16T08:34:21.348Z,47.94
2018-06-16T08:36:50.686Z,47.41
2018-06-16T08:39:20.211Z,48.02
2018-06-16T08:41:49.532Z,47.33
2018-06-16T08:44:18.849Z,48.48
2018-06-16T08:46:48.253Z,47.87
2018-06-16T08:49:17.743Z,47.33
2018-06-16T08:51:48.153Z,47.55
2018-06-16T08:54:17.569Z,46.56
2018-06-16T08:56:46.921Z,46.59
2018-06-16T08:59:16.287Z,47.37
2018-06-16T09:01:45.762Z,47.92
2018-06-16T09:04:15.140Z,48.74
2018-06-16T09:06:44.602Z,48.10
2018-06-16T09:09:14.080Z,47.17
2018-06-16T09:11:43.368Z,46.39
2018-06-16T09:14:12.721Z,46.11
2018-06-16T09:16:42.237Z,46.85
2018-06-16T09:19:11.703Z,49.05
2018-06-16T09:21:41.161Z,49.36
2018-06-16T09:24:10.485Z,47.13
2018-06-16T09:26:40.274Z,43.88
2018-06-16T09:29:23.481Z,45.36
2018-06-16T09:31:53.012Z,47.41
2018-06-16T09:34:22.351Z,48.41
2018-06-16T09:36:51.722Z,48.79
2018-06-16T09:39:21.355Z,48.39
2018-06-16T09:41:50.752Z,46.40
2018-06-16T09:44:20.365Z,48.17
2018-06-16T09:46:49.677Z,50.60
2018-06-16T09:49:19.285Z,50.37
2018-06-16T09:51:48.600Z,49.14
2018-06-16T09:54:17.979Z,47.24
2018-06-16T09:56:47.338Z,48.15
2018-06-16T09:59:16.943Z,47.79
2018-06-16T10:01:46.407Z,47.77
2018-06-16T10:04:15.710Z,46.87
2018-06-16T10:06:45.097Z,47.69
2018-06-16T10:09:14.468Z,46.52
2018-06-16T10:11:43.990Z,47.26
2018-06-16T10:14:13.318Z,49.04
2018-06-16T10:16:42.654Z,48.98
2018-06-16T10:19:12.191Z,49.75
2018-06-16T10:21:41.711Z,48.89
2018-06-16T10:24:11.113Z,50.67
2018-06-16T10:26:40.481Z,47.88
2018-06-16T10:29:09.908Z,46.84
2018-06-16T10:31:39.229Z,46.22
2018-06-16T10:34:08.568Z,47.38
2018-06-16T10:36:37.903Z,46.39
2018-06-16T10:39:10.341Z,48.32
2018-06-16T10:41:40.157Z,45.83
2018-06-16T10:44:09.529Z,46.01
2018-06-16T10:46:44.827Z,42.55
2018-06-16T10:49:14.254Z,42.46
2018-06-16T10:51:43.613Z,43.74
2018-06-16T10:54:13.071Z,42.00
2018-06-16T10:56:42.460Z,43.80
2018-06-16T10:59:11.760Z,44.75
2018-06-16T11:01:41.058Z,45.01
2018-06-16T11:04:10.723Z,45.51
2018-06-16T11:06:40.401Z,45.21
2018-06-16T11:09:10.868Z,45.64
2018-06-16T11:11:40.227Z,44.94
2018-06-16T11:14:10.313Z,45.89
2018-06-16T11:16:40.301Z,46.49
2018-06-16T11:19:09.691Z,43.92
2018-06-16T11:21:38.993Z,45.65
2018-06-16T11:24:08.320Z,44.90
2018-06-16T11:26:37.829Z,43.79
2018-06-16T11:29:07.295Z,42.45
2018-06-16T11:31:36.417Z,44.72
2018-06-16T11:34:17.339Z,44.93
2018-06-16T11:36:46.640Z,42.25
2018-06-16T11:39:16.002Z,43.16
2018-06-16T11:41:45.335Z,42.90
2018-06-16T11:44:14.706Z,43.29
2018-06-16T11:46:44.286Z,45.47
2018-06-16T11:49:13.586Z,42.90
2018-06-16T11:51:42.906Z,43.40
2018-06-16T11:54:12.369Z,43.17
2018-06-16T11:56:41.678Z,41.39
2018-06-16T11:59:11.304Z,43.77
2018-06-16T12:01:40.622Z,42.55
2018-06-16T12:04:10.129Z,43.07
2018-06-16T12:06:39.605Z,41.83
2018-06-16T12:09:11.600Z,42.60
2018-06-16T12:11:41.998Z,39.86
2018-06-16T12:14:11.545Z,42.78
2018-06-16T12:16:40.830Z,43.25
2018-06-16T12:19:10.189Z,43.31
2018-06-16T12:21:39.474Z,43.00
2018-06-16T12:24:08.785Z,41.61
2018-06-16T12:26:38.104Z,41.88
2018-06-16T12:29:07.480Z,43.37
2018-06-16T12:31:36.884Z,42.50
2018-06-16T12:34:06.273Z,40.16
2018-06-16T12:36:35.656Z,40.20
2018-06-16T12:39:09.130Z,40.34
2018-06-16T12:41:38.543Z,39.37
2018-06-16T12:44:07.961Z,36.86
2018-06-16T12:46:37.400Z,39.76
2018-06-16T12:49:06.725Z,36.67
2018-06-16T12:51:36.083Z,37.63
2018-06-16T12:54:05.537Z,40.18
2018-06-16T12:56:34.823Z,39.95
2018-06-16T12:59:04.290Z,39.49
2018-06-16T13:01:33.603Z,38.30
2018-06-16T13:04:02.949Z,41.50
2018-06-16T13:06:32.338Z,40.18
2018-06-16T13:09:01.864Z,38.35
2018-06-16T13:11:31.550Z,40.97
2018-06-16T13:14:01.007Z,41.80
2018-06-16T13:16:30.490Z,42.57
2018-06-16T13:19:01.036Z,40.17
2018-06-16T13:21:30.396Z,40.12
2018-06-16T13:23:59.893Z,40.76
2018-06-16T13:26:29.418Z,40.17
2018-06-16T13:28:58.826Z,38.45
2018-06-16T13:31:28.225Z,38.09
2018-06-16T13:33:57.710Z,37.57
2018-06-16T13:36:27.234Z,37.90
2018-06-16T13:38:57.096Z,40.49
2018-06-16T13:41:26.487Z,41.18
2018-06-16T13:43:56.191Z,37.36
2018-06-16T13:46:26.096Z,40.11
2018-06-16T13:48:56.257Z,40.38
2018-06-16T13:51:25.746Z,41.20
2018-06-16T13:53:55.547Z,39.30
2018-06-16T13:56:25.048Z,37.98
2018-06-16T13:58:54.437Z,39.79
2018-06-16T14:01:23.953Z,39.93
2018-06-16T14:03:53.367Z,39.61
2018-06-16T14:06:22.730Z,39.10
2018-06-16T14:08:52.166Z,37.93
2018-06-16T14:11:22.525Z,40.10
2018-06-16T14:13:51.913Z,42.65
2018-06-16T14:16:21.360Z,38.86
2018-06-16T14:18:50.718Z,41.08
2018-06-16T14:21:20.208Z,36.10
2018-06-16T14:23:49.560Z,40.41
2018-06-16T14:26:18.877Z,39.26
2018-06-16T14:28:48.264Z,38.55
2018-06-16T14:31:17.653Z,38.13
2018-06-16T14:33:46.957Z,40.75
2018-06-16T14:36:16.320Z,40.45
2018-06-16T14:38:45.674Z,36.45
2018-06-16T14:41:16.045Z,40.11
2018-06-16T14:43:45.414Z,36.96
2018-06-16T14:46:14.821Z,39.19
2018-06-16T14:48:44.238Z,39.60
2018-06-16T14:51:13.632Z,40.73
2018-06-16T14:53:43.014Z,39.86
2018-06-16T14:56:12.463Z,40.85
2018-06-16T14:58:41.591Z,39.20
2018-06-16T15:01:10.963Z,40.04
2018-06-16T15:03:41.365Z,40.00
2018-06-16T15:06:10.901Z,41.27
2018-06-16T15:08:41.280Z,40.75
2018-06-16T15:11:10.722Z,40.93
2018-06-16T15:13:40.088Z,41.50
2018-06-16T15:16:09.485Z,39.95
2018-06-16T15:18:38.831Z,40.28
2018-06-16T15:21:08.251Z,39.47
2018-06-16T15:23:37.732Z,40.95
2018-06-16T15:26:07.053Z,39.66
2018-06-16T15:28:36.352Z,40.02
2018-06-16T15:31:05.652Z,40.98
2018-06-16T15:33:35.032Z,40.90
2018-06-16T15:36:04.482Z,40.81
2018-06-16T15:38:33.833Z,40.80
2018-06-16T15:41:03.346Z,40.55
2018-06-16T15:43:32.995Z,41.85
2018-06-16T15:46:02.487Z,41.48
2018-06-16T15:48:31.949Z,42.41
2018-06-16T15:51:01.311Z,43.02
2018-06-16T15:53:30.770Z,42.63
2018-06-16T15:56:00.210Z,42.08
2018-06-16T15:58:29.707Z,41.00
2018-06-16T16:00:59.126Z,41.59
2018-06-16T16:03:28.490Z,40.60
2018-06-16T16:05:57.924Z,40.74
2018-06-16T16:08:27.332Z,41.63
2018-06-16T16:10:56.765Z,41.56
2018-06-16T16:13:26.262Z,41.14
2018-06-16T16:15:55.632Z,42.07
2018-06-16T16:18:25.248Z,42.34
2018-06-16T16:20:54.718Z,41.19
2018-06-16T16:23:24.176Z,41.66
2018-06-16T16:25:53.642Z,42.66
2018-06-16T16:28:23.051Z,42.01
2018-06-16T16:30:52.516Z,41.92
2018-06-16T16:33:21.890Z,42.75
2018-06-16T16:35:51.765Z,42.82
2018-06-16T16:38:21.653Z,43.00
2018-06-16T16:40:51.035Z,43.13
2018-06-16T16:43:20.834Z,43.23
2018-06-16T16:45:51.343Z,44.52
2018-06-16T16:48:20.761Z,42.13
2018-06-16T16:50:50.094Z,42.82
2018-06-16T16:53:19.486Z,43.22
2018-06-16T16:55:48.864Z,42.38
2018-06-16T16:58:18.668Z,42.94
2018-06-16T17:00:48.092Z,43.83
2018-06-16T17:03:17.564Z,44.69
2018-06-16T17:05:46.922Z,43.52
2018-06-16T17:08:16.311Z,43.94
2018-06-16T17:10:45.620Z,43.98
2018-06-16T17:13:15.027Z,44.46
2018-06-16T17:15:44.355Z,43.46
2018-06-16T17:18:13.761Z,43.41
2018-06-16T17:20:43.093Z,43.53
2018-06-16T17:23:12.522Z,43.88
2018-06-16T17:25:41.855Z,43.95
2018-06-16T17:28:11.206Z,44.87
2018-06-16T17:30:40.649Z,43.04
2018-06-16T17:33:09.949Z,43.28
2018-06-16T17:35:39.301Z,43.49
2018-06-16T17:38:08.715Z,43.59
2018-06-16T17:40:38.341Z,44.52
2018-06-16T17:43:08.107Z,43.29
2018-06-16T17:45:37.430Z,43.41
2018-06-16T17:48:06.772Z,42.95
2018-06-16T17:50:36.355Z,43.77
2018-06-16T17:53:05.660Z,43.58
2018-06-16T17:55:35.042Z,44.90
2018-06-16T17:58:04.715Z,45.32
2018-06-16T18:00:34.001Z,45.03
2018-06-16T18:03:03.359Z,45.64
2018-06-16T18:05:32.709Z,45.76
2018-06-16T18:08:02.250Z,45.49
2018-06-16T18:10:31.691Z,45.83
2018-06-16T18:13:01.522Z,45.90
2018-06-16T18:15:31.172Z,47.37
2018-06-16T18:18:00.609Z,47.98
2018-06-16T18:20:30.085Z,47.15
2018-06-16T18:22:59.656Z,48.33
2018-06-16T18:25:29.066Z,48.90
2018-06-16T18:27:58.595Z,47.90
2018-06-16T18:30:28.093Z,48.27
2018-06-16T18:32:57.562Z,48.96
2018-06-16T18:35:26.979Z,49.69
2018-06-16T18:37:56.746Z,49.71
2018-06-16T18:40:26.140Z,48.99
2018-06-16T18:42:56.750Z,50.22
2018-06-16T18:45:26.321Z,51.29
2018-06-16T18:47:55.790Z,51.09
2018-06-16T18:50:25.310Z,50.96
2018-06-16T18:52:54.758Z,51.34
2018-06-16T18:55:26.284Z,51.10
2018-06-16T18:57:55.664Z,52.13
2018-06-16T19:00:25.253Z,50.91
2018-06-16T19:02:54.751Z,50.72
2018-06-16T19:05:24.278Z,51.17
2018-06-16T19:07:53.757Z,52.16
2018-06-16T19:10:23.235Z,51.52
2018-06-16T19:12:52.769Z,51.32
2018-06-16T19:15:22.504Z,52.79
2018-06-16T19:17:51.955Z,53.61
2018-06-16T19:20:21.442Z,53.28
2018-06-16T19:22:50.872Z,53.04
2018-06-16T19:25:20.237Z,54.04
2018-06-16T19:27:49.630Z,53.60
2018-06-16T19:30:19.383Z,53.47
2018-06-16T19:32:48.726Z,54.57
2018-06-16T19:35:18.157Z,54.17
2018-06-16T19:37:47.494Z,53.20
2018-06-16T19:40:17.211Z,53.58
2018-06-16T19:42:46.622Z,52.80
2018-06-16T19:45:16.042Z,53.77
2018-06-16T19:47:45.341Z,53.92
2018-06-16T19:50:14.750Z,54.17
2018-06-16T19:52:44.236Z,54.23
2018-06-16T19:55:13.746Z,54.16
2018-06-16T19:57:43.324Z,53.50
2018-06-16T20:00:12.781Z,55.26
2018-06-16T20:02:42.239Z,55.03
2018-06-16T20:05:11.651Z,54.73
2018-06-16T20:07:41.034Z,53.72
2018-06-16T20:10:10.516Z,55.41
2018-06-16T20:12:39.934Z,55.49
2018-06-16T20:15:09.334Z,54.64
2018-06-16T20:17:38.681Z,54.37
2018-06-16T20:20:09.074Z,54.71
2018-06-16T20:22:38.580Z,55.31
2018-06-16T20:25:08.101Z,54.71
2018-06-16T20:27:37.421Z,53.81
2018-06-16T20:30:06.731Z,54.50
2018-06-16T20:32:36.101Z,54.52
2018-06-16T20:35:05.442Z,54.53
2018-06-16T20:37:34.805Z,54.45
2018-06-16T20:40:04.120Z,54.64
2018-06-16T20:42:33.673Z,54.39
2018-06-16T20:45:03.509Z,55.10
2018-06-16T20:47:32.929Z,54.96
2018-06-16T20:50:02.354Z,55.02
2018-06-16T20:52:31.763Z,54.75
2018-06-16T20:55:01.169Z,55.54
2018-06-16T20:57:30.710Z,56.30
2018-06-16T21:00:00.224Z,54.62
2018-06-16T21:02:29.727Z,54.75
2018-06-16T21:04:59.186Z,56.06
2018-06-16T21:07:28.485Z,55.67
2018-06-16T21:09:58.179Z,55.76
2018-06-16T21:12:30.555Z,55.69
2018-06-16T21:15:05.471Z,55.99
2018-06-16T21:17:40.202Z,56.73
2018-06-16T21:20:09.680Z,56.51
2018-06-16T21:22:39.594Z,56.11
2018-06-16T21:25:10.851Z,57.16
2018-06-16T21:27:40.205Z,57.07
2018-06-16T21:30:12.499Z,57.60
2018-06-16T21:32:42.570Z,57.42
2018-06-16T21:35:12.601Z,57.45
2018-06-16T21:37:43.006Z,57.68
2018-06-16T21:40:12.488Z,57.32
2018-06-16T21:42:43.665Z,57.42
2018-06-16T21:45:14.183Z,56.69
2018-06-16T21:47:43.777Z,56.73
2018-06-16T21:50:14.156Z,57.25
2018-06-16T21:52:44.136Z,57.08
2018-06-16T21:55:13.695Z,58.41
2018-06-16T21:57:43.505Z,58.34
2018-06-16T22:00:15.193Z,58.03
2018-06-16T22:02:44.809Z,57.83
2018-06-16T22:05:14.352Z,58.61
2018-06-16T22:07:45.197Z,58.89
2018-06-16T22:10:14.586Z,58.80
2018-06-16T22:12:43.898Z,60.08
2018-06-16T22:15:13.303Z,59.62
2018-06-16T22:17:42.646Z,59.26
2018-06-16T22:20:13.379Z,59.23
2018-06-16T22:22:42.833Z,59.75
2018-06-16T22:25:12.622Z,60.28
2018-06-16T22:27:42.145Z,60.06
2018-06-16T22:30:13.501Z,60.12
2018-06-16T22:32:43.279Z,61.06
2018-06-16T22:35:12.647Z,60.45
2018-06-16T22:37:42.006Z,61.20
2018-06-16T22:40:11.341Z,62.02
2018-06-16T22:42:40.725Z,61.38
2018-06-16T22:45:10.360Z,61.06
2018-06-16T22:47:39.704Z,62.13
2018-06-16T22:50:09.082Z,62.53
2018-06-16T22:52:38.470Z,61.96
2018-06-16T22:55:07.798Z,61.60
2018-06-16T22:57:37.136Z,62.10
2018-06-16T23:00:06.578Z,62.68
2018-06-16T23:02:35.997Z,62.81
2018-06-16T23:05:05.337Z,62.64
2018-06-16T23:07:34.678Z,62.35
2018-06-16T23:10:04.032Z,63.08
2018-06-16T23:12:33.390Z,62.43
2018-06-16T23:15:02.699Z,62.43
2018-06-16T23:17:32.070Z,62.88
2018-06-16T23:20:01.413Z,63.59
2018-06-16T23:22:30.730Z,63.48
2018-06-16T23:25:00.144Z,63.61
2018-06-16T23:27:29.221Z,63.34
2018-06-16T23:29:58.578Z,63.95
2018-06-16T23:32:27.932Z,64.14
2018-06-16T23:34:57.267Z,63.25
2018-06-16T23:37:26.695Z,63.42
2018-06-16T23:39:56.045Z,63.05
2018-06-16T23:42:25.417Z,63.98
2018-06-16T23:44:54.858Z,63.23
2018-06-16T23:47:24.295Z,63.10
2018-06-16T23:49:53.649Z,63.18
2018-06-16T23:52:23.124Z,62.57
2018-06-16T23:54:52.577Z,62.93
2018-06-16T23:57:21.941Z,62.78
2018-06-16T23:59:51.306Z,61.75
